createdAt,value
2023-03-31T00:02:23.591Z,20.90
2023-03-31T00:04:53.679Z,11.05
2023-03-31T00:07:24.899Z,7.80
2023-03-31T00:10:06.866Z,5.72
2023-03-31T00:12:42.548Z,6.30
2023-03-31T00:15:09.781Z,16.92
2023-03-31T00:17:36.972Z,12.88
2023-03-31T00:20:05.764Z,10.85
2023-03-31T00:22:32.898Z,12.05
2023-03-31T00:25:00.486Z,8.85
2023-03-31T00:27:28.450Z,11.90
2023-03-31T00:29:55.724Z,17.58
2023-03-31T00:32:22.997Z,11.00
2023-03-31T00:34:50.217Z,10.82
2023-03-31T00:37:17.479Z,9.23
2023-03-31T00:39:44.582Z,7.75
2023-03-31T00:42:15.786Z,14.65
2023-03-31T00:45:01.721Z,9.68
2023-03-31T00:47:30.209Z,12.10
2023-03-31T00:49:58.562Z,23.95
2023-03-31T00:52:28.751Z,8.88
2023-03-31T00:54:57.376Z,9.07
2023-03-31T00:57:28.601Z,9.05
2023-03-31T00:59:59.583Z,6.82
2023-03-31T01:02:26.871Z,14.63
2023-03-31T01:04:57.461Z,10.95
2023-03-31T01:07:33.606Z,9.20
2023-03-31T01:10:02.298Z,8.10
2023-03-31T01:12:29.623Z,16.73
2023-03-31T01:14:56.821Z,12.35
2023-03-31T01:17:24.946Z,16.65
2023-03-31T01:19:57.816Z,20.05
2023-03-31T01:22:34.614Z,11.20
2023-03-31T01:25:24.058Z,13.57
2023-03-31T01:28:09.962Z,17.50
2023-03-31T01:30:57.886Z,9.10
2023-03-31T01:33:25.047Z,9.98
2023-03-31T01:36:03.209Z,10.63
2023-03-31T01:38:41.165Z,12.63
2023-03-31T01:41:12.096Z,9.73
2023-03-31T01:43:47.201Z,13.00
2023-03-31T01:46:17.503Z,14.80
2023-03-31T01:49:03.395Z,18.85
2023-03-31T01:51:36.824Z,15.52
2023-03-31T01:54:07.887Z,15.02
2023-03-31T01:56:40.798Z,11.20
2023-03-31T01:59:11.016Z,14.90
2023-03-31T02:01:40.739Z,13.32
2023-03-31T02:04:23.388Z,25.25
2023-03-31T02:06:56.361Z,15.68
2023-03-31T02:09:25.773Z,19.88
2023-03-31T02:11:53.897Z,13.63
2023-03-31T02:14:23.078Z,18.33
2023-03-31T02:16:52.234Z,18.40
2023-03-31T02:19:20.351Z,14.20
2023-03-31T02:21:49.891Z,13.75
2023-03-31T02:24:18.272Z,20.10
2023-03-31T02:27:08.703Z,11.25
2023-03-31T02:29:36.075Z,12.45
2023-03-31T02:32:21.308Z,22.88
2023-03-31T02:34:48.544Z,24.98
2023-03-31T02:37:16.120Z,29.80
2023-03-31T02:39:45.237Z,17.50
2023-03-31T02:42:12.432Z,20.63
2023-03-31T02:44:40.297Z,22.50
2023-03-31T02:47:09.334Z,17.95
2023-03-31T02:49:38.027Z,12.48
2023-03-31T02:52:20.760Z,15.00
2023-03-31T02:54:56.960Z,9.48
2023-03-31T02:57:33.893Z,14.05
2023-03-31T03:00:08.169Z,11.73
2023-03-31T03:02:44.628Z,7.57
2023-03-31T03:05:11.855Z,11.98
2023-03-31T03:07:45.536Z,15.43
2023-03-31T03:10:29.349Z,9.70
2023-03-31T03:15:27.062Z,14.82
2023-03-31T03:17:54.361Z,7.03
2023-03-31T03:20:22.004Z,18.38
2023-03-31T03:22:49.396Z,7.13
2023-03-31T03:25:20.807Z,10.18
2023-03-31T03:27:48.150Z,11.52
2023-03-31T03:30:15.352Z,24.92
2023-03-31T03:32:43.111Z,17.33
2023-03-31T03:35:10.770Z,14.85
2023-03-31T03:37:38.303Z,14.32
2023-03-31T03:40:06.251Z,20.75
2023-03-31T03:42:33.986Z,8.02
2023-03-31T03:45:01.458Z,12.93
2023-03-31T03:47:29.140Z,12.25
2023-03-31T03:49:56.480Z,20.10
2023-03-31T03:52:23.612Z,22.02
2023-03-31T03:54:50.706Z,21.48
2023-03-31T03:57:17.881Z,15.23
2023-03-31T03:59:45.112Z,9.07
2023-03-31T04:02:12.591Z,16.88
2023-03-31T04:04:39.876Z,15.13
2023-03-31T04:07:07.170Z,15.07
2023-03-31T04:09:34.343Z,16.55
2023-03-31T04:12:01.622Z,15.38
2023-03-31T04:14:28.801Z,11.52
2023-03-31T04:16:56.498Z,10.10
2023-03-31T04:19:25.954Z,8.73
2023-03-31T04:21:59.056Z,11.38
2023-03-31T04:24:30.658Z,9.88
2023-03-31T04:26:58.480Z,29.98
2023-03-31T04:29:26.774Z,45.80
2023-03-31T04:31:58.671Z,60.33
2023-03-31T04:34:35.179Z,28.75
2023-03-31T04:37:02.981Z,23.88
2023-03-31T04:39:33.612Z,10.43
2023-03-31T04:42:01.520Z,21.20
2023-03-31T04:44:29.055Z,14.27
2023-03-31T04:46:56.265Z,12.32
2023-03-31T04:49:23.444Z,16.38
2023-03-31T04:51:50.869Z,14.55
2023-03-31T04:54:17.982Z,14.13
2023-03-31T04:56:45.252Z,11.55
2023-03-31T04:59:12.456Z,20.58
2023-03-31T05:01:39.744Z,12.93
2023-03-31T05:04:07.098Z,17.55
2023-03-31T05:06:34.434Z,10.45
2023-03-31T05:09:01.827Z,12.00
2023-03-31T05:11:29.104Z,13.52
2023-03-31T05:13:56.431Z,15.40
2023-03-31T05:16:23.604Z,14.18
2023-03-31T05:18:50.852Z,28.83
2023-03-31T05:21:19.258Z,16.95
2023-03-31T05:23:46.569Z,30.38
2023-03-31T05:26:14.073Z,28.13
2023-03-31T05:28:41.681Z,38.72
2023-03-31T05:31:09.420Z,32.10
2023-03-31T05:33:40.399Z,18.35
2023-03-31T05:36:09.243Z,26.40
2023-03-31T05:38:36.874Z,49.92
2023-03-31T05:41:04.089Z,56.67
2023-03-31T05:43:31.335Z,48.45
2023-03-31T05:45:58.650Z,54.88
2023-03-31T05:48:25.905Z,32.42
2023-03-31T05:50:53.122Z,22.45
2023-03-31T05:53:20.223Z,43.70
2023-03-31T05:55:47.319Z,28.42
2023-03-31T05:58:14.473Z,22.45
2023-03-31T06:00:41.696Z,26.55
2023-03-31T06:03:08.962Z,18.27
2023-03-31T06:05:36.381Z,34.05
2023-03-31T06:08:03.843Z,24.00
2023-03-31T06:10:31.198Z,21.83
2023-03-31T06:12:58.339Z,20.70
2023-03-31T06:15:25.519Z,28.70
2023-03-31T06:17:52.681Z,16.45
2023-03-31T06:20:27.237Z,33.38
2023-03-31T06:22:55.932Z,24.85
2023-03-31T06:25:23.094Z,14.40
2023-03-31T06:27:50.308Z,18.50
2023-03-31T06:30:17.517Z,9.60
2023-03-31T06:32:44.661Z,9.90
2023-03-31T06:35:11.953Z,11.80
2023-03-31T06:37:39.161Z,6.35
2023-03-31T06:40:06.649Z,8.55
2023-03-31T06:42:34.939Z,7.68
2023-03-31T06:45:02.085Z,4.95
2023-03-31T06:47:29.261Z,6.95
2023-03-31T06:49:56.418Z,6.30
2023-03-31T06:52:23.616Z,6.90
2023-03-31T06:54:51.034Z,5.40
2023-03-31T06:57:18.322Z,5.93
2023-03-31T06:59:45.464Z,6.32
2023-03-31T07:02:12.715Z,8.43
2023-03-31T07:04:40.014Z,7.53
2023-03-31T07:07:07.225Z,10.18
2023-03-31T07:09:34.350Z,6.45
2023-03-31T07:12:01.738Z,4.80
2023-03-31T07:14:28.989Z,4.63
2023-03-31T07:16:56.242Z,6.55
2023-03-31T07:19:23.386Z,7.88
2023-03-31T07:21:51.379Z,6.20
2023-03-31T07:24:18.656Z,8.98
2023-03-31T07:26:45.994Z,5.85
2023-03-31T07:29:13.136Z,6.95
2023-03-31T07:31:40.434Z,6.50
2023-03-31T07:34:07.671Z,5.13
2023-03-31T07:36:34.873Z,6.32
2023-03-31T07:39:02.062Z,4.82
2023-03-31T07:41:29.277Z,3.53
2023-03-31T07:43:56.413Z,7.93
2023-03-31T07:46:25.106Z,5.00
2023-03-31T07:48:52.928Z,5.35
2023-03-31T07:51:21.689Z,5.90
2023-03-31T07:53:49.593Z,5.10
2023-03-31T07:56:17.416Z,4.10
2023-03-31T07:58:45.222Z,1.80
2023-03-31T08:01:17.105Z,5.55
2023-03-31T08:03:45.140Z,3.35
2023-03-31T08:06:12.436Z,3.47
2023-03-31T08:08:46.034Z,3.28
2023-03-31T08:13:41.331Z,3.40
2023-03-31T08:16:08.856Z,3.22
2023-03-31T08:18:36.436Z,1.92
2023-03-31T08:21:03.674Z,2.72
2023-03-31T08:23:30.949Z,1.30
2023-03-31T08:26:08.561Z,2.55
2023-03-31T08:28:39.323Z,2.80
2023-03-31T08:31:07.844Z,2.63
2023-03-31T08:33:35.874Z,1.13
2023-03-31T08:36:04.041Z,1.38
2023-03-31T08:38:31.865Z,1.23
2023-03-31T08:41:02.933Z,1.55
2023-03-31T08:43:35.967Z,2.90
2023-03-31T08:46:04.326Z,4.13
2023-03-31T08:48:35.048Z,3.92
2023-03-31T08:51:06.550Z,5.05
2023-03-31T08:53:40.238Z,1.35
2023-03-31T08:58:40.894Z,1.88
2023-03-31T09:01:26.987Z,2.35
2023-03-31T09:04:13.123Z,1.80
2023-03-31T09:06:46.461Z,0.63
2023-03-31T09:09:28.951Z,0.95
2023-03-31T09:11:58.150Z,0.93
2023-03-31T09:14:32.180Z,1.63
2023-03-31T09:17:18.090Z,1.85
2023-03-31T09:19:54.607Z,2.10
2023-03-31T09:22:27.526Z,2.58
2023-03-31T09:25:04.539Z,2.78
2023-03-31T09:27:34.972Z,1.48
2023-03-31T09:30:15.786Z,3.03
2023-03-31T09:32:43.457Z,2.75
2023-03-31T09:35:26.684Z,3.15
2023-03-31T09:37:54.704Z,0.63
2023-03-31T09:40:23.517Z,3.00
2023-03-31T09:43:09.950Z,3.53
2023-03-31T09:45:37.126Z,2.05
2023-03-31T09:48:11.855Z,12.40
2023-03-31T09:50:43.019Z,3.53
2023-03-31T09:53:16.127Z,3.08
2023-03-31T09:55:48.722Z,4.10
2023-03-31T09:58:16.858Z,2.70
2023-03-31T10:00:45.297Z,1.48
2023-03-31T10:03:14.119Z,4.07
2023-03-31T10:05:55.001Z,1.63
2023-03-31T10:08:32.402Z,1.10
2023-03-31T10:11:02.634Z,1.67
2023-03-31T10:13:31.316Z,3.00
2023-03-31T10:16:08.849Z,1.77
2023-03-31T10:18:37.659Z,3.58
2023-03-31T10:21:07.240Z,2.53
2023-03-31T10:23:36.161Z,3.78
2023-03-31T10:26:04.074Z,3.25
2023-03-31T10:28:32.955Z,2.83
2023-03-31T10:31:04.340Z,4.13
2023-03-31T10:33:34.788Z,2.60
2023-03-31T10:36:10.857Z,4.05
2023-03-31T10:38:45.316Z,2.80
2023-03-31T10:41:12.980Z,2.28
2023-03-31T10:43:43.962Z,2.22
2023-03-31T10:46:12.969Z,1.42
2023-03-31T10:48:41.608Z,2.33
2023-03-31T10:51:19.176Z,3.80
2023-03-31T10:53:48.076Z,1.83
2023-03-31T10:56:19.281Z,1.75
2023-03-31T10:59:04.628Z,2.40
2023-03-31T11:01:38.466Z,3.03
2023-03-31T11:04:09.606Z,2.80
2023-03-31T11:06:53.083Z,3.13
2023-03-31T11:09:35.708Z,0.68
2023-03-31T11:12:13.644Z,4.60
2023-03-31T11:14:41.565Z,3.00
2023-03-31T11:17:24.092Z,3.20
2023-03-31T11:20:07.227Z,2.78
2023-03-31T11:22:41.809Z,2.50
2023-03-31T11:25:13.808Z,1.65
2023-03-31T11:27:59.629Z,3.08
2023-03-31T11:30:31.464Z,2.97
2023-03-31T11:33:17.491Z,1.70
2023-03-31T11:36:08.352Z,1.48
2023-03-31T11:38:44.708Z,1.50
2023-03-31T11:41:14.436Z,3.88
2023-03-31T11:43:46.807Z,3.25
2023-03-31T11:46:16.001Z,1.92
2023-03-31T11:48:46.169Z,1.08
2023-03-31T11:51:17.653Z,2.28
2023-03-31T11:53:46.063Z,1.48
2023-03-31T11:56:14.000Z,2.42
2023-03-31T11:58:45.351Z,5.88
2023-03-31T12:01:19.575Z,1.48
2023-03-31T12:03:55.912Z,2.47
2023-03-31T12:06:24.808Z,3.30
2023-03-31T12:09:08.477Z,3.78
2023-03-31T12:11:44.730Z,2.80
2023-03-31T12:14:24.693Z,1.75
2023-03-31T12:17:11.943Z,3.05
2023-03-31T12:19:45.674Z,3.67
2023-03-31T12:22:16.152Z,2.30
2023-03-31T12:24:43.328Z,3.58
2023-03-31T12:27:19.792Z,2.78
2023-03-31T12:29:49.336Z,3.20
2023-03-31T12:32:19.048Z,5.45
2023-03-31T12:34:49.585Z,1.75
2023-03-31T12:37:35.774Z,2.83
2023-03-31T12:40:19.176Z,1.70
2023-03-31T12:42:56.597Z,1.15
2023-03-31T12:45:31.458Z,0.95
2023-03-31T12:48:21.290Z,1.20
2023-03-31T12:51:04.092Z,1.10
2023-03-31T12:53:34.505Z,2.95
2023-03-31T12:56:01.767Z,1.98
2023-03-31T12:58:33.991Z,3.40
2023-03-31T13:01:11.351Z,1.20
2023-03-31T13:03:41.496Z,1.73
2023-03-31T13:06:11.297Z,2.90
2023-03-31T13:08:58.217Z,2.03
2023-03-31T13:11:31.594Z,2.13
2023-03-31T13:16:47.104Z,2.28
2023-03-31T13:19:27.329Z,3.33
2023-03-31T13:21:56.188Z,2.80
2023-03-31T13:24:24.057Z,2.17
2023-03-31T13:26:54.087Z,3.35
2023-03-31T13:29:27.247Z,1.85
2023-03-31T13:32:03.896Z,2.05
2023-03-31T13:34:31.113Z,2.75
2023-03-31T13:37:14.432Z,6.30
2023-03-31T13:40:08.860Z,1.85
2023-03-31T13:45:07.386Z,4.15
2023-03-31T13:47:46.924Z,4.53
2023-03-31T13:50:19.958Z,4.47
2023-03-31T13:53:03.792Z,2.47
2023-03-31T13:55:36.996Z,1.25
2023-03-31T13:58:29.951Z,3.25
2023-03-31T14:01:14.279Z,5.90
2023-03-31T14:04:11.249Z,3.95
2023-03-31T14:06:41.027Z,2.85
2023-03-31T14:09:12.784Z,5.10
2023-03-31T14:11:39.968Z,4.22
2023-03-31T14:14:12.091Z,6.80
2023-03-31T14:16:41.429Z,4.47
2023-03-31T14:21:53.736Z,4.60
2023-03-31T14:24:28.425Z,8.68
2023-03-31T14:27:12.398Z,10.95
2023-03-31T14:29:48.230Z,6.70
2023-03-31T14:32:32.347Z,3.70
2023-03-31T14:35:05.797Z,7.40
2023-03-31T14:37:33.176Z,4.35
2023-03-31T14:40:03.383Z,4.65
2023-03-31T14:42:40.009Z,2.45
2023-03-31T14:45:18.299Z,2.42
2023-03-31T14:47:54.383Z,5.32
2023-03-31T14:50:21.582Z,8.30
2023-03-31T14:52:50.179Z,1.70
2023-03-31T14:55:18.164Z,1.50
2023-03-31T14:57:47.172Z,4.72
2023-03-31T15:00:22.165Z,2.20
2023-03-31T15:02:49.973Z,2.75
2023-03-31T15:05:24.648Z,3.22
2023-03-31T15:07:52.012Z,3.03
2023-03-31T15:10:23.066Z,2.60
2023-03-31T15:12:52.001Z,3.60
2023-03-31T15:15:20.868Z,5.18
2023-03-31T15:17:48.879Z,6.28
2023-03-31T15:20:24.851Z,3.13
2023-03-31T15:22:53.294Z,11.38
2023-03-31T15:25:22.416Z,11.95
2023-03-31T15:27:56.017Z,5.72
2023-03-31T15:33:01.346Z,4.38
2023-03-31T15:35:43.695Z,5.05
2023-03-31T15:38:12.586Z,5.28
2023-03-31T15:40:41.243Z,2.35
2023-03-31T15:45:51.430Z,3.25
2023-03-31T15:48:54.037Z,4.10
2023-03-31T15:51:25.571Z,7.22
2023-03-31T15:53:53.951Z,1.50
2023-03-31T15:59:27.680Z,0.75
2023-03-31T16:02:04.316Z,9.27
2023-03-31T16:04:37.520Z,9.02
2023-03-31T16:07:35.382Z,4.68
2023-03-31T16:10:12.155Z,0.60
2023-03-31T16:12:54.411Z,0.98
2023-03-31T16:15:25.195Z,2.50
2023-03-31T16:18:02.624Z,1.75
2023-03-31T16:20:40.020Z,0.85
2023-03-31T16:23:16.600Z,3.13
2023-03-31T16:25:44.026Z,4.10
2023-03-31T16:28:15.596Z,3.88
2023-03-31T16:30:43.548Z,0.60
2023-03-31T16:33:12.434Z,2.08
2023-03-31T16:35:42.253Z,1.67
2023-03-31T16:38:12.008Z,1.30
2023-03-31T16:40:43.398Z,2.05
2023-03-31T16:43:16.108Z,3.53
2023-03-31T16:45:57.438Z,2.83
2023-03-31T16:48:26.205Z,1.35
2023-03-31T16:50:54.689Z,2.90
2023-03-31T16:53:23.252Z,0.90
2023-03-31T16:55:54.121Z,1.48
2023-03-31T16:58:24.493Z,2.17
2023-03-31T17:00:52.385Z,2.25
2023-03-31T17:03:20.522Z,1.17
2023-03-31T17:05:50.666Z,1.80
2023-03-31T17:08:17.864Z,2.45
2023-03-31T17:10:54.895Z,10.77
2023-03-31T17:13:26.343Z,2.42
2023-03-31T17:16:01.506Z,3.38
2023-03-31T17:18:40.422Z,3.08
2023-03-31T17:21:09.673Z,1.25
2023-03-31T17:23:38.592Z,3.38
2023-03-31T17:26:09.974Z,1.45
2023-03-31T17:28:37.749Z,3.42
2023-03-31T17:31:12.279Z,3.03
2023-03-31T17:33:41.163Z,3.35
2023-03-31T17:36:08.594Z,2.80
2023-03-31T17:38:35.802Z,3.05
2023-03-31T17:41:36.720Z,1.83
2023-03-31T17:44:12.347Z,3.33
2023-03-31T17:46:39.691Z,4.43
2023-03-31T17:49:07.275Z,2.47
2023-03-31T17:51:38.335Z,3.03
2023-03-31T17:54:05.994Z,1.65
2023-03-31T17:56:33.295Z,3.47
2023-03-31T17:59:00.704Z,0.93
2023-03-31T18:01:31.254Z,2.15
2023-03-31T18:03:58.556Z,3.45
2023-03-31T18:06:25.914Z,2.70
2023-03-31T18:08:53.520Z,2.38
2023-03-31T18:15:29.811Z,2.10
2023-03-31T18:18:04.326Z,4.10
2023-03-31T18:20:33.023Z,1.20
2023-03-31T18:23:01.186Z,2.38
2023-03-31T18:25:28.463Z,0.70
2023-03-31T18:27:56.487Z,1.50
2023-03-31T18:30:23.680Z,4.88
2023-03-31T18:32:51.304Z,2.15
2023-03-31T18:35:19.964Z,1.52
2023-03-31T18:37:47.179Z,2.95
2023-03-31T18:40:15.140Z,4.60
2023-03-31T18:42:42.600Z,2.03
2023-03-31T18:45:10.203Z,2.47
2023-03-31T18:47:37.475Z,2.38
2023-03-31T18:50:04.912Z,1.52
2023-03-31T18:52:33.367Z,3.70
2023-03-31T18:55:00.725Z,3.28
2023-03-31T18:57:28.007Z,3.38
2023-03-31T18:59:56.077Z,2.28
2023-03-31T19:02:23.406Z,1.70
2023-03-31T19:04:50.561Z,1.67
2023-03-31T19:07:18.724Z,3.58
2023-03-31T19:09:46.145Z,3.38
2023-03-31T19:12:13.365Z,2.50
2023-03-31T19:14:41.580Z,1.63
2023-03-31T19:17:09.349Z,3.33
2023-03-31T19:19:36.756Z,2.65
2023-03-31T19:22:04.010Z,2.30
2023-03-31T19:24:31.328Z,1.38
2023-03-31T19:27:00.290Z,1.10
2023-03-31T19:29:28.176Z,2.15
2023-03-31T19:31:56.267Z,3.40
2023-03-31T19:34:23.551Z,2.88
2023-03-31T19:36:51.041Z,2.25
2023-03-31T19:39:18.342Z,1.63
2023-03-31T19:41:45.720Z,2.50
2023-03-31T19:44:25.141Z,2.08
2023-03-31T19:46:53.512Z,1.13
2023-03-31T19:49:21.456Z,1.67
2023-03-31T19:51:48.728Z,5.03
2023-03-31T19:54:16.870Z,1.27
2023-03-31T19:56:44.350Z,1.05
2023-03-31T19:59:11.955Z,1.73
2023-03-31T20:01:39.294Z,2.97
2023-03-31T20:04:07.930Z,3.08
2023-03-31T20:06:35.795Z,1.25
2023-03-31T20:09:03.832Z,1.17
2023-03-31T20:11:32.184Z,3.90
2023-03-31T20:13:59.945Z,1.17
2023-03-31T20:16:29.303Z,2.53
2023-03-31T20:19:01.511Z,1.75
2023-03-31T20:21:30.025Z,2.13
2023-03-31T20:23:58.849Z,1.13
2023-03-31T20:26:29.571Z,1.48
2023-03-31T20:28:58.764Z,0.75
2023-03-31T20:31:27.572Z,0.73
2023-03-31T20:33:55.660Z,2.28
2023-03-31T20:36:24.058Z,2.38
2023-03-31T20:38:52.432Z,2.30
2023-03-31T20:41:20.963Z,0.88
2023-03-31T20:43:48.325Z,1.40
2023-03-31T20:46:15.769Z,1.98
2023-03-31T20:48:45.824Z,2.28
2023-03-31T20:51:14.910Z,2.10
2023-03-31T20:53:46.805Z,1.55
2023-03-31T20:56:18.452Z,0.32
2023-03-31T20:58:46.068Z,2.88
2023-03-31T21:01:14.379Z,1.25
2023-03-31T21:03:42.343Z,1.45
2023-03-31T21:06:11.970Z,1.85
2023-03-31T21:08:39.945Z,0.52
2023-03-31T21:11:07.422Z,2.08
2023-03-31T21:13:35.126Z,2.92
2023-03-31T21:16:04.435Z,0.35
2023-03-31T21:18:33.209Z,0.68
2023-03-31T21:21:01.934Z,1.55
2023-03-31T21:23:29.721Z,1.42
2023-03-31T21:25:58.547Z,1.17
2023-03-31T21:28:28.032Z,0.65
2023-03-31T21:30:57.933Z,2.15
2023-03-31T21:33:25.874Z,1.13
2023-03-31T21:35:53.767Z,1.15
2023-03-31T21:38:21.494Z,2.20
2023-03-31T21:40:48.758Z,0.73
2023-03-31T21:43:16.558Z,1.42
2023-03-31T21:45:43.757Z,2.40
2023-03-31T21:48:11.900Z,1.48
2023-03-31T21:50:40.352Z,0.85
2023-03-31T21:53:08.419Z,3.20
2023-03-31T21:55:37.446Z,2.08
2023-03-31T21:58:06.038Z,2.70
2023-03-31T22:00:33.394Z,1.13
2023-03-31T22:05:33.879Z,5.22
2023-03-31T22:08:01.221Z,5.30
2023-03-31T22:10:28.487Z,2.58
2023-03-31T22:12:56.050Z,2.65
2023-03-31T22:15:25.056Z,2.40
2023-03-31T22:17:52.329Z,5.13
2023-03-31T22:20:19.842Z,2.03
2023-03-31T22:22:47.387Z,2.30
2023-03-31T22:25:14.765Z,1.83
2023-03-31T22:27:42.025Z,1.95
2023-03-31T22:30:09.619Z,1.65
2023-03-31T22:32:37.013Z,1.60
2023-03-31T22:35:04.258Z,3.55
2023-03-31T22:37:31.655Z,2.78
2023-03-31T22:39:58.843Z,2.15
2023-03-31T22:42:26.298Z,5.82
2023-03-31T22:44:53.511Z,2.05
2023-03-31T22:47:20.882Z,2.53
2023-03-31T22:49:48.226Z,1.85
2023-03-31T22:52:15.736Z,1.48
2023-03-31T22:54:42.972Z,1.13
2023-03-31T22:57:10.671Z,1.58
2023-03-31T22:59:37.910Z,2.05
2023-03-31T23:02:05.450Z,1.02
2023-03-31T23:04:32.809Z,0.88
2023-03-31T23:07:00.126Z,4.65
2023-03-31T23:09:29.508Z,6.57
2023-03-31T23:11:56.790Z,2.63
2023-03-31T23:14:24.155Z,1.65
2023-03-31T23:16:51.919Z,1.98
2023-03-31T23:19:19.728Z,4.97
2023-03-31T23:21:47.128Z,0.63
2023-03-31T23:24:14.540Z,3.05
2023-03-31T23:26:41.753Z,3.25
2023-03-31T23:29:09.213Z,4.05
2023-03-31T23:31:36.647Z,2.80
2023-03-31T23:34:04.028Z,3.70
2023-03-31T23:36:31.877Z,3.97
2023-03-31T23:39:03.226Z,1.73
2023-03-31T23:41:30.489Z,4.22
2023-03-31T23:43:57.934Z,2.20
2023-03-31T23:46:26.111Z,2.92
2023-03-31T23:48:53.468Z,3.38
2023-03-31T23:51:21.164Z,2.50
2023-03-31T23:53:48.472Z,2.30
2023-03-31T23:56:15.860Z,3.22
2023-03-31T23:58:44.979Z,3.90
